createdAt,value
2016-09-05T00:00:47.647Z,1004.25
2016-09-05T00:01:47.668Z,1004.21
2016-09-05T00:02:47.694Z,1004.23
2016-09-05T00:03:47.721Z,1004.22
2016-09-05T00:04:47.745Z,1004.27
2016-09-05T00:05:47.770Z,1004.34
2016-09-05T00:06:47.795Z,1004.28
2016-09-05T00:07:47.870Z,1004.28
2016-09-05T00:08:47.847Z,1004.24
2016-09-05T00:09:47.872Z,1004.27
2016-09-05T00:10:47.896Z,1004.29
2016-09-05T00:11:47.922Z,1004.28
2016-09-05T00:12:47.956Z,1004.32
2016-09-05T00:13:47.972Z,1004.31
2016-09-05T00:14:48.004Z,1004.33
2016-09-05T00:15:48.029Z,1004.3
2016-09-05T00:16:48.047Z,1004.28
2016-09-05T00:17:48.129Z,1004.27
2016-09-05T00:18:48.098Z,1004.32
2016-09-05T00:19:48.123Z,1004.34
2016-09-05T00:20:48.147Z,1004.36
2016-09-05T00:21:48.179Z,1004.32
2016-09-05T00:22:48.204Z,1004.38
2016-09-05T00:23:48.223Z,1004.38
2016-09-05T00:24:48.248Z,1004.37
2016-09-05T00:25:48.273Z,1004.37
2016-09-05T00:26:48.299Z,1004.35
2016-09-05T00:27:48.324Z,1004.36
2016-09-05T00:28:48.350Z,1004.35
2016-09-05T00:29:48.375Z,1004.43
2016-09-05T00:30:48.405Z,1004.35
2016-09-05T00:32:48.452Z,1004.39
2016-09-05T00:33:48.482Z,1004.41
2016-09-05T00:34:48.502Z,1004.42
2016-09-05T00:35:48.532Z,1004.44
2016-09-05T00:36:48.551Z,1004.42
2016-09-05T00:37:48.583Z,1004.42
2016-09-05T00:38:48.604Z,1004.45
2016-09-05T00:39:48.627Z,1004.45
2016-09-05T00:40:48.652Z,1004.42
2016-09-05T00:41:48.678Z,1004.43
2016-09-05T00:42:48.702Z,1004.44
2016-09-05T00:43:48.727Z,1004.43
2016-09-05T00:44:48.753Z,1004.43
2016-09-05T00:45:48.777Z,1004.5
2016-09-05T00:46:48.803Z,1004.45
2016-09-05T00:48:48.853Z,1004.44
2016-09-05T00:49:48.878Z,1004.43
2016-09-05T00:50:48.904Z,1004.44
2016-09-05T00:51:48.931Z,1004.44
2016-09-05T00:52:48.960Z,1004.45
2016-09-05T00:53:48.981Z,1004.48
2016-09-05T00:54:49.004Z,1004.46
2016-09-05T00:55:49.029Z,1004.45
2016-09-05T00:56:49.060Z,1004.49
2016-09-05T00:57:49.082Z,1004.5
2016-09-05T00:58:49.112Z,1004.46
2016-09-05T00:59:49.133Z,1004.48
2016-09-05T01:00:49.161Z,1004.53
2016-09-05T01:01:49.181Z,1004.52
2016-09-05T01:02:49.213Z,1004.53
2016-09-05T01:04:49.256Z,1004.53
2016-09-05T01:05:49.281Z,1004.47
2016-09-05T01:06:49.307Z,1004.5
2016-09-05T01:07:49.331Z,1004.5
2016-09-05T01:08:49.357Z,1004.49
2016-09-05T01:09:49.382Z,1004.52
2016-09-05T01:10:49.413Z,1004.53
2016-09-05T01:11:49.435Z,1004.52
2016-09-05T01:12:49.458Z,1004.53
2016-09-05T01:13:49.490Z,1004.51
2016-09-05T01:14:49.508Z,1004.53
2016-09-05T01:15:49.541Z,1004.52
2016-09-05T01:16:49.560Z,1004.54
2016-09-05T01:17:49.591Z,1004.52
2016-09-05T01:18:49.610Z,1004.55
2016-09-05T01:20:49.667Z,1004.57
2016-09-05T01:21:49.692Z,1004.55
2016-09-05T01:22:49.710Z,1004.54
2016-09-05T01:23:49.734Z,1004.59
2016-09-05T01:24:49.761Z,1004.55
2016-09-05T01:25:49.786Z,1004.61
2016-09-05T01:26:49.811Z,1004.55
2016-09-05T01:27:49.836Z,1004.56
2016-09-05T01:28:49.864Z,1004.56
2016-09-05T01:29:49.897Z,1004.57
2016-09-05T01:30:49.911Z,1004.54
2016-09-05T01:31:49.938Z,1004.53
2016-09-05T01:32:49.962Z,1004.56
2016-09-05T01:33:49.993Z,1004.55
2016-09-05T01:35:50.040Z,1004.56
2016-09-05T01:36:50.062Z,1004.59
2016-09-05T01:37:50.088Z,1004.55
2016-09-05T01:38:50.113Z,1004.61
2016-09-05T01:39:50.142Z,1004.62
2016-09-05T01:40:50.166Z,1004.64
2016-09-05T01:41:50.195Z,1004.62
2016-09-05T01:42:50.217Z,1004.64
2016-09-05T01:43:50.239Z,1004.66
2016-09-05T01:44:50.266Z,1004.69
2016-09-05T01:45:50.289Z,1004.65
2016-09-05T01:46:50.315Z,1004.72
2016-09-05T01:47:50.342Z,1004.65
2016-09-05T01:48:50.367Z,1004.67
2016-09-05T01:49:50.391Z,1004.69
2016-09-05T01:50:50.423Z,1004.72
2016-09-05T01:51:50.449Z,1004.67
2016-09-05T01:52:50.468Z,1004.67
2016-09-05T01:53:50.494Z,1004.74
2016-09-05T01:54:50.516Z,1004.74
2016-09-05T01:55:50.541Z,1004.72
2016-09-05T01:56:50.567Z,1004.72
2016-09-05T01:57:50.592Z,1004.7
2016-09-05T01:58:50.617Z,1004.69
2016-09-05T01:59:50.644Z,1004.77
2016-09-05T02:00:50.674Z,1004.71
2016-09-05T02:01:50.692Z,1004.72
2016-09-05T02:02:50.723Z,1004.72
2016-09-05T02:03:50.743Z,1004.66
2016-09-05T02:04:50.768Z,1004.69
2016-09-05T02:05:50.793Z,1004.73
2016-09-05T02:07:50.850Z,1004.7
2016-09-05T02:08:50.869Z,1004.71
2016-09-05T02:09:50.895Z,1004.67
2016-09-05T02:10:50.919Z,1004.72
2016-09-05T02:11:50.946Z,1004.71
2016-09-05T02:12:50.970Z,1004.7
2016-09-05T02:13:50.995Z,1004.69
2016-09-05T02:14:51.019Z,1004.65
2016-09-05T02:15:51.051Z,1004.67
2016-09-05T02:16:51.069Z,1004.65
2016-09-05T02:17:51.097Z,1004.68
2016-09-05T02:18:51.120Z,1004.66
2016-09-05T02:19:51.151Z,1004.65
2016-09-05T02:20:51.170Z,1004.61
2016-09-05T02:21:51.197Z,1004.64
2016-09-05T02:23:51.246Z,1004.63
2016-09-05T02:24:51.271Z,1004.67
2016-09-05T02:25:51.296Z,1004.67
2016-09-05T02:26:51.324Z,1004.67
2016-09-05T02:27:51.352Z,1004.72
2016-09-05T02:28:51.377Z,1004.68
2016-09-05T02:29:51.399Z,1004.7
2016-09-05T02:30:51.429Z,1004.72
2016-09-05T02:31:51.452Z,1004.75
2016-09-05T02:32:51.471Z,1004.72
2016-09-05T02:33:51.498Z,1004.71
2016-09-05T02:34:51.523Z,1004.76
2016-09-05T02:35:51.547Z,1004.79
2016-09-05T02:36:51.572Z,1004.78
2016-09-05T02:37:51.604Z,1004.78
2016-09-05T02:39:51.648Z,1004.78
2016-09-05T02:40:51.680Z,1004.8
2016-09-05T02:41:51.700Z,1004.77
2016-09-05T02:42:51.729Z,1004.8
2016-09-05T02:43:51.749Z,1004.8
2016-09-05T02:44:51.780Z,1004.86
2016-09-05T02:45:51.806Z,1004.85
2016-09-05T02:46:51.825Z,1004.88
2016-09-05T02:47:51.851Z,1004.86
2016-09-05T02:48:51.877Z,1004.84
2016-09-05T02:49:51.906Z,1004.9
2016-09-05T02:50:51.925Z,1004.97
2016-09-05T02:51:51.956Z,1004.97
2016-09-05T02:52:51.976Z,1004.98
2016-09-05T02:53:52.000Z,1005.03
2016-09-05T02:55:52.052Z,1005.02
2016-09-05T02:56:52.076Z,1005.04
2016-09-05T02:57:52.100Z,1005
2016-09-05T02:58:52.126Z,1005.02
2016-09-05T02:59:52.151Z,1005.04
2016-09-05T03:00:52.178Z,1005.03
2016-09-05T03:01:52.201Z,1005.07
2016-09-05T03:02:52.232Z,1005.07
2016-09-05T03:03:52.253Z,1005.06
2016-09-05T03:04:52.276Z,1005.06
2016-09-05T03:05:52.301Z,1005.05
2016-09-05T03:06:52.328Z,1005.03
2016-09-05T03:07:52.353Z,1005.07
2016-09-05T03:08:52.392Z,1005.03
2016-09-05T03:10:52.431Z,1005.04
2016-09-05T03:11:52.453Z,1005.05
2016-09-05T03:12:52.480Z,1005.07
2016-09-05T03:13:52.504Z,1005.04
2016-09-05T03:14:52.530Z,1005.1
2016-09-05T03:15:52.560Z,1005.14
2016-09-05T03:16:52.579Z,1005.18
2016-09-05T03:17:52.605Z,1005.15
2016-09-05T03:18:52.631Z,1005.16
2016-09-05T03:19:52.655Z,1005.15
2016-09-05T03:20:52.680Z,1005.14
2016-09-05T03:21:52.705Z,1005.13
2016-09-05T03:22:52.730Z,1005.14
2016-09-05T03:23:52.755Z,1005.12
2016-09-05T03:24:52.782Z,1005.13
2016-09-05T03:25:52.806Z,1005.13
2016-09-05T03:26:52.838Z,1005.11
2016-09-05T03:27:52.858Z,1005.16
2016-09-05T03:28:52.882Z,1005.13
2016-09-05T03:29:52.908Z,1005.18
2016-09-05T03:30:52.932Z,1005.18
2016-09-05T03:31:53.007Z,1005.17
2016-09-05T03:32:52.988Z,1005.16
2016-09-05T03:33:53.007Z,1005.22
2016-09-05T03:34:53.039Z,1005.15
2016-09-05T03:35:53.059Z,1005.15
2016-09-05T03:36:53.083Z,1005.15
2016-09-05T03:37:53.106Z,1005.14
2016-09-05T03:38:53.139Z,1005.16
2016-09-05T03:39:53.157Z,1005.16
2016-09-05T03:40:53.183Z,1005.2
2016-09-05T03:42:53.235Z,1005.21
2016-09-05T03:43:53.265Z,1005.2
2016-09-05T03:44:53.284Z,1005.23
2016-09-05T03:45:53.315Z,1005.19
2016-09-05T03:46:53.340Z,1005.22
2016-09-05T03:47:53.360Z,1005.2
2016-09-05T03:48:53.384Z,1005.21
2016-09-05T03:49:53.415Z,1005.24
2016-09-05T03:50:53.436Z,1005.28
2016-09-05T03:51:53.458Z,1005.27
2016-09-05T03:52:53.486Z,1005.32
2016-09-05T03:53:53.509Z,1005.28
2016-09-05T03:54:53.536Z,1005.32
2016-09-05T03:55:53.559Z,1005.35
2016-09-05T03:56:53.584Z,1005.33
2016-09-05T03:58:53.637Z,1005.3
2016-09-05T03:59:53.661Z,1005.37
2016-09-05T04:00:53.685Z,1005.37
2016-09-05T04:01:53.711Z,1005.32
2016-09-05T04:02:53.740Z,1005.36
2016-09-05T04:03:53.763Z,1005.29
2016-09-05T04:04:53.786Z,1005.34
2016-09-05T04:05:53.812Z,1005.37
2016-09-05T04:06:53.841Z,1005.38
2016-09-05T04:07:53.863Z,1005.39
2016-09-05T04:08:53.893Z,1005.41
2016-09-05T04:09:53.912Z,1005.38
2016-09-05T04:10:53.938Z,1005.41
2016-09-05T04:11:53.961Z,1005.39
2016-09-05T04:12:53.989Z,1005.47
2016-09-05T04:14:54.037Z,1005.46
2016-09-05T04:15:54.062Z,1005.49
2016-09-05T04:16:54.089Z,1005.46
2016-09-05T04:17:54.112Z,1005.47
2016-09-05T04:18:54.140Z,1005.46
2016-09-05T04:19:54.163Z,1005.5
2016-09-05T04:20:54.191Z,1005.45
2016-09-05T04:21:54.219Z,1005.53
2016-09-05T04:22:54.291Z,1005.49
2016-09-05T04:23:54.266Z,1005.55
2016-09-05T04:24:54.290Z,1005.55
2016-09-05T04:25:54.314Z,1005.59
2016-09-05T04:26:54.345Z,1005.57
2016-09-05T04:27:54.365Z,1005.56
2016-09-05T04:28:54.395Z,1005.56
2016-09-05T04:30:54.440Z,1005.64
2016-09-05T04:31:54.466Z,1005.69
2016-09-05T04:32:54.491Z,1005.64
2016-09-05T04:33:54.515Z,1005.66
2016-09-05T04:34:54.547Z,1005.7
2016-09-05T04:35:54.564Z,1005.64
2016-09-05T04:36:54.597Z,1005.67
2016-09-05T04:37:54.615Z,1005.68
2016-09-05T04:38:54.646Z,1005.69
2016-09-05T04:39:54.665Z,1005.68
2016-09-05T04:40:54.692Z,1005.71
2016-09-05T04:41:54.718Z,1005.7
2016-09-05T04:42:54.748Z,1005.75
2016-09-05T04:43:54.768Z,1005.79
2016-09-05T04:45:54.817Z,1005.76
2016-09-05T04:46:54.841Z,1005.8
2016-09-05T04:47:54.867Z,1005.8
2016-09-05T04:48:54.897Z,1005.81
2016-09-05T04:49:54.919Z,1005.81
2016-09-05T04:50:54.941Z,1005.85
2016-09-05T04:51:54.969Z,1005.84
2016-09-05T04:52:54.998Z,1005.8
2016-09-05T04:53:55.016Z,1005.89
2016-09-05T04:54:55.041Z,1005.9
2016-09-05T04:55:55.066Z,1005.91
2016-09-05T04:56:55.092Z,1005.9
2016-09-05T04:57:55.116Z,1005.95
2016-09-05T04:58:55.144Z,1005.98
2016-09-05T04:59:55.173Z,1005.99
2016-09-05T05:00:55.194Z,1005.98
2016-09-05T05:01:55.216Z,1005.95
2016-09-05T05:02:55.242Z,1005.94
2016-09-05T05:03:55.268Z,1005.91
2016-09-05T05:04:55.293Z,1005.94
2016-09-05T05:05:55.322Z,1005.99
2016-09-05T05:06:55.347Z,1005.98
2016-09-05T05:07:55.368Z,1005.98
2016-09-05T05:08:55.391Z,1006.01
2016-09-05T05:09:55.416Z,1005.98
2016-09-05T05:10:55.444Z,1005.99
2016-09-05T05:11:55.467Z,1006.01
2016-09-05T05:12:55.491Z,1006.02
2016-09-05T05:13:55.516Z,1006.08
2016-09-05T05:14:55.542Z,1006.08
2016-09-05T05:15:55.565Z,1006.1
2016-09-05T05:17:55.617Z,1006.11
2016-09-05T05:18:55.641Z,1006.07
2016-09-05T05:19:55.665Z,1006.08
2016-09-05T05:20:55.690Z,1006.11
2016-09-05T05:21:55.717Z,1006.08
2016-09-05T05:22:56.893Z,1006.09
2016-09-05T05:23:55.771Z,1006.14
2016-09-05T05:24:55.791Z,1006.13
2016-09-05T05:25:55.816Z,1006.17
2016-09-05T05:26:55.841Z,1006.18
2016-09-05T05:27:55.872Z,1006.25
2016-09-05T05:28:55.891Z,1006.23
2016-09-05T05:29:55.917Z,1006.22
2016-09-05T05:30:55.946Z,1006.24
2016-09-05T05:31:55.966Z,1006.25
2016-09-05T05:33:56.017Z,1006.28
2016-09-05T05:34:56.047Z,1006.29
2016-09-05T05:35:56.069Z,1006.31
2016-09-05T05:36:56.092Z,1006.34
2016-09-05T05:37:56.117Z,1006.37
2016-09-05T05:38:56.142Z,1006.35
2016-09-05T05:39:56.166Z,1006.34
2016-09-05T05:40:56.198Z,1006.37
2016-09-05T05:41:56.217Z,1006.34
2016-09-05T05:42:56.247Z,1006.39
2016-09-05T05:43:56.269Z,1006.38
2016-09-05T05:44:56.295Z,1006.38
2016-09-05T05:45:56.323Z,1006.38
2016-09-05T05:46:56.346Z,1006.4
2016-09-05T05:47:56.374Z,1006.4
2016-09-05T05:49:56.468Z,1006.47
2016-09-05T05:50:56.443Z,1006.46
2016-09-05T05:51:56.468Z,1006.44
2016-09-05T05:52:56.493Z,1006.46
2016-09-05T05:53:56.518Z,1006.5
2016-09-05T05:54:56.549Z,1006.46
2016-09-05T05:55:56.569Z,1006.48
2016-09-05T05:56:56.599Z,1006.47
2016-09-05T05:57:56.621Z,1006.49
2016-09-05T05:58:56.646Z,1006.52
2016-09-05T05:59:56.669Z,1006.51
2016-09-05T06:00:56.698Z,1006.51
2016-09-05T06:01:56.725Z,1006.55
2016-09-05T06:02:56.746Z,1006.55
2016-09-05T06:03:56.771Z,1006.58
2016-09-05T06:05:56.818Z,1006.61
2016-09-05T06:06:56.844Z,1006.62
2016-09-05T06:07:56.870Z,1006.65
2016-09-05T06:08:56.894Z,1006.61
2016-09-05T06:09:56.919Z,1006.59
2016-09-05T06:10:56.950Z,1006.62
2016-09-05T06:11:56.976Z,1006.63
2016-09-05T06:12:56.995Z,1006.64
2016-09-05T06:13:57.021Z,1006.62
2016-09-05T06:14:57.046Z,1006.64
2016-09-05T06:15:57.069Z,1006.68
2016-09-05T06:16:57.097Z,1006.69
2016-09-05T06:17:57.120Z,1006.68
2016-09-05T06:18:57.146Z,1006.72
2016-09-05T06:20:57.203Z,1006.68
2016-09-05T06:21:57.227Z,1006.7
2016-09-05T06:22:57.249Z,1006.71
2016-09-05T06:23:57.278Z,1006.72
2016-09-05T06:24:57.299Z,1006.74
2016-09-05T06:25:57.328Z,1006.71
2016-09-05T06:26:57.346Z,1006.76
2016-09-05T06:27:57.428Z,1006.78
2016-09-05T06:28:57.399Z,1006.79
2016-09-05T06:29:57.422Z,1006.82
2016-09-05T06:30:57.447Z,1006.82
2016-09-05T06:31:57.479Z,1006.84
2016-09-05T06:32:57.497Z,1006.87
2016-09-05T06:33:57.526Z,1006.88
2016-09-05T06:34:57.548Z,1006.88
2016-09-05T06:35:57.574Z,1006.85
2016-09-05T06:36:57.600Z,1006.91
2016-09-05T06:37:57.629Z,1006.89
2016-09-05T06:38:57.648Z,1006.9
2016-09-05T06:39:57.680Z,1006.91
2016-09-05T06:40:57.699Z,1006.96
2016-09-05T06:41:57.724Z,1006.97
2016-09-05T06:42:57.750Z,1006.95
2016-09-05T06:43:57.781Z,1006.97
2016-09-05T06:44:57.806Z,1007.01
2016-09-05T06:45:57.825Z,1007.02
2016-09-05T06:46:57.856Z,1007.04
2016-09-05T06:47:57.874Z,1007.06
2016-09-05T06:48:57.906Z,1007.1
2016-09-05T06:49:57.926Z,1007.1
2016-09-05T06:50:57.957Z,1007.09
2016-09-05T06:52:58.001Z,1007.13
2016-09-05T06:53:58.033Z,1007.14
2016-09-05T06:54:58.052Z,1007.1
2016-09-05T06:55:58.096Z,1007.15
2016-09-05T06:56:58.103Z,1007.16
2016-09-05T06:57:58.128Z,1007.13
2016-09-05T06:58:58.152Z,1007.08
2016-09-05T06:59:58.180Z,1007.1
2016-09-05T07:00:58.204Z,1007.09
2016-09-05T07:01:58.227Z,1007.1
2016-09-05T07:02:58.255Z,1007.1
2016-09-05T07:03:58.278Z,1007.07
2016-09-05T07:04:58.304Z,1007.16
2016-09-05T07:05:58.335Z,1007.21
2016-09-05T07:06:58.357Z,1007.19
2016-09-05T07:08:58.412Z,1007.2
2016-09-05T07:09:58.430Z,1007.16
2016-09-05T07:10:58.457Z,1007.2
2016-09-05T07:11:58.481Z,1007.21
2016-09-05T07:12:58.511Z,1007.22
2016-09-05T07:13:58.533Z,1007.26
2016-09-05T07:14:58.557Z,1007.21
2016-09-05T07:15:58.582Z,1007.27
2016-09-05T07:16:58.612Z,1007.27
2016-09-05T07:17:58.632Z,1007.3
2016-09-05T07:18:58.660Z,1007.32
2016-09-05T07:19:58.683Z,1007.31
2016-09-05T07:20:58.710Z,1007.33
2016-09-05T07:21:58.733Z,1007.29
2016-09-05T07:22:58.759Z,1007.33
2016-09-05T07:24:58.815Z,1007.28
2016-09-05T07:25:58.834Z,1007.29
2016-09-05T07:26:58.860Z,1007.27
2016-09-05T07:27:58.885Z,1007.3
2016-09-05T07:28:58.910Z,1007.3
2016-09-05T07:29:58.936Z,1007.31
2016-09-05T07:30:58.967Z,1007.26
2016-09-05T07:31:58.985Z,1007.33
2016-09-05T07:32:59.012Z,1007.31
2016-09-05T07:33:59.040Z,1007.38
2016-09-05T07:34:59.069Z,1007.35
2016-09-05T07:35:59.088Z,1007.37
2016-09-05T07:36:59.115Z,1007.36
2016-09-05T07:37:59.143Z,1007.36
2016-09-05T07:38:59.222Z,1007.33
2016-09-05T07:40:59.220Z,1007.4
2016-09-05T07:41:59.243Z,1007.43
2016-09-05T07:42:59.268Z,1007.4
2016-09-05T07:43:59.294Z,1007.43
2016-09-05T07:44:59.321Z,1007.4
2016-09-05T07:45:59.353Z,1007.45
2016-09-05T07:46:59.379Z,1007.46
2016-09-05T07:47:59.398Z,1007.44
2016-09-05T07:48:59.425Z,1007.58
2016-09-05T07:49:59.451Z,1007.55
2016-09-05T07:50:59.482Z,1007.53
2016-09-05T07:51:59.509Z,1007.58
2016-09-05T07:52:59.530Z,1007.58
2016-09-05T07:53:59.556Z,1007.64
2016-09-05T07:55:59.616Z,1007.61
2016-09-05T07:56:59.634Z,1007.61
2016-09-05T07:57:59.661Z,1007.58
2016-09-05T07:58:59.693Z,1007.55
2016-09-05T07:59:59.716Z,1007.6
2016-09-05T08:00:59.740Z,1007.61
2016-09-05T08:01:59.768Z,1007.6
2016-09-05T08:02:59.804Z,1007.55
2016-09-05T08:03:59.876Z,1007.57
2016-09-05T08:04:59.848Z,1007.61
2016-09-05T08:05:59.877Z,1007.64
2016-09-05T08:06:59.907Z,1007.63
2016-09-05T08:07:59.927Z,1007.69
2016-09-05T08:08:59.957Z,1007.68
2016-09-05T08:09:59.983Z,1007.68
2016-09-05T08:11:00.009Z,1007.7
2016-09-05T08:12:00.037Z,1007.69
2016-09-05T08:13:00.068Z,1007.71
2016-09-05T08:14:00.091Z,1007.77
2016-09-05T08:15:00.114Z,1007.76
2016-09-05T08:16:00.142Z,1007.7
2016-09-05T08:17:00.170Z,1007.68
2016-09-05T08:18:00.200Z,1007.7
2016-09-05T08:19:00.222Z,1007.75
2016-09-05T08:20:00.250Z,1007.78
2016-09-05T08:21:00.276Z,1007.84
2016-09-05T08:22:00.303Z,1007.87
2016-09-05T08:23:00.335Z,1007.88
2016-09-05T08:24:00.358Z,1007.88
2016-09-05T08:25:00.382Z,1007.9
2016-09-05T08:26:00.408Z,1007.93
2016-09-05T08:28:00.462Z,1007.96
2016-09-05T08:29:00.489Z,1007.98
2016-09-05T08:30:00.522Z,1007.96
2016-09-05T08:31:00.542Z,1007.97
2016-09-05T08:32:00.571Z,1007.97
2016-09-05T08:33:00.597Z,1007.99
2016-09-05T08:34:00.630Z,1007.97
2016-09-05T08:35:00.651Z,1008
2016-09-05T08:36:00.678Z,1007.95
2016-09-05T08:37:00.704Z,1008.01
2016-09-05T08:38:00.730Z,1008
2016-09-05T08:39:00.757Z,1008.04
2016-09-05T08:40:00.785Z,1008.06
2016-09-05T08:41:00.811Z,1008.09
2016-09-05T08:42:00.840Z,1008.12
2016-09-05T08:44:00.894Z,1008.18
2016-09-05T08:45:00.920Z,1008.17
2016-09-05T08:46:00.948Z,1008.19
2016-09-05T08:47:01.025Z,1008.16
2016-09-05T08:48:01.001Z,1008.18
2016-09-05T08:49:01.032Z,1008.19
2016-09-05T08:50:01.059Z,1008.23
2016-09-05T08:51:01.091Z,1008.2
2016-09-05T08:52:01.118Z,1008.21
2016-09-05T08:53:01.147Z,1008.27
2016-09-05T08:54:01.171Z,1008.25
2016-09-05T08:55:01.197Z,1008.33
2016-09-05T08:56:01.224Z,1008.32
2016-09-05T08:57:01.259Z,1008.34
2016-09-05T08:58:01.281Z,1008.33
2016-09-05T09:00:01.337Z,1008.28
2016-09-05T09:01:01.374Z,1008.37
2016-09-05T09:02:01.398Z,1008.41
2016-09-05T09:03:01.423Z,1008.45
2016-09-05T09:04:01.452Z,1008.39
2016-09-05T09:05:01.483Z,1008.33
2016-09-05T09:06:01.510Z,1008.38
2016-09-05T09:07:01.543Z,1008.44
2016-09-05T09:08:01.566Z,1008.43
2016-09-05T09:09:01.596Z,1008.52
2016-09-05T09:10:01.627Z,1008.5
2016-09-05T09:11:01.653Z,1008.48
2016-09-05T09:12:01.685Z,1008.47
2016-09-05T09:13:01.711Z,1008.49
2016-09-05T09:14:01.739Z,1008.61
2016-09-05T09:16:01.797Z,1008.54
2016-09-05T09:17:01.833Z,1008.56
2016-09-05T09:18:01.853Z,1008.55
2016-09-05T09:19:01.888Z,1008.56
2016-09-05T09:20:01.913Z,1008.57
2016-09-05T09:21:01.945Z,1008.58
2016-09-05T09:22:01.966Z,1008.59
2016-09-05T09:23:01.996Z,1008.65
2016-09-05T09:24:02.029Z,1008.66
2016-09-05T09:25:02.054Z,1008.64
2016-09-05T09:26:02.080Z,1008.74
2016-09-05T09:27:02.109Z,1008.71
2016-09-05T09:28:02.136Z,1008.74
2016-09-05T09:29:02.166Z,1008.74
2016-09-05T09:31:02.222Z,1008.78
2016-09-05T09:32:02.246Z,1008.81
2016-09-05T09:33:02.281Z,1008.84
2016-09-05T09:34:02.302Z,1008.82
2016-09-05T09:35:02.329Z,1008.85
2016-09-05T09:36:02.363Z,1008.86
2016-09-05T09:37:02.392Z,1008.89
2016-09-05T09:38:02.413Z,1008.95
2016-09-05T09:39:02.438Z,1008.92
2016-09-05T09:40:02.472Z,1008.93
2016-09-05T09:41:02.492Z,1008.89
2016-09-05T09:42:02.527Z,1008.97
2016-09-05T09:43:02.547Z,1008.91
2016-09-05T09:44:02.578Z,1008.97
2016-09-05T09:45:02.602Z,1008.98
2016-09-05T09:46:02.636Z,1008.96
2016-09-05T09:47:02.656Z,1009.02
2016-09-05T09:48:02.685Z,1009.03
2016-09-05T09:49:02.716Z,1009
2016-09-05T09:50:02.737Z,1009
2016-09-05T09:51:02.765Z,1009.03
2016-09-05T09:52:02.797Z,1009.03
2016-09-05T09:53:02.820Z,1009.09
2016-09-05T09:54:02.851Z,1009.11
2016-09-05T09:55:02.873Z,1009.1
2016-09-05T09:56:02.900Z,1009.14
2016-09-05T09:57:02.928Z,1009.18
2016-09-05T09:58:02.954Z,1009.18
2016-09-05T09:59:02.982Z,1009.22
2016-09-05T10:00:03.015Z,1009.21
2016-09-05T10:01:03.034Z,1009.25
2016-09-05T10:03:03.089Z,1009.22
2016-09-05T10:04:03.117Z,1009.25
2016-09-05T10:05:03.151Z,1009.31
2016-09-05T10:06:03.169Z,1009.31
2016-09-05T10:07:03.202Z,1009.31
2016-09-05T10:08:03.225Z,1009.33
2016-09-05T10:09:03.249Z,1009.34
2016-09-05T10:10:03.287Z,1009.39
2016-09-05T10:11:03.302Z,1009.38
2016-09-05T10:12:03.330Z,1009.31
2016-09-05T10:13:03.362Z,1009.34
2016-09-05T10:14:03.385Z,1009.39
2016-09-05T10:15:03.416Z,1009.38
2016-09-05T10:16:03.437Z,1009.45
2016-09-05T10:17:03.469Z,1009.43
2016-09-05T10:19:03.517Z,1009.5
2016-09-05T10:20:03.543Z,1009.51
2016-09-05T10:21:03.572Z,1009.5
2016-09-05T10:22:03.598Z,1009.52
2016-09-05T10:23:03.623Z,1009.52
2016-09-05T10:24:03.658Z,1009.53
2016-09-05T10:25:03.680Z,1009.48
2016-09-05T10:26:03.709Z,1009.48
2016-09-05T10:27:03.734Z,1009.48
2016-09-05T10:28:03.761Z,1009.49
2016-09-05T10:29:03.796Z,1009.51
2016-09-05T10:30:03.818Z,1009.54
2016-09-05T10:31:03.851Z,1009.59
2016-09-05T10:32:03.880Z,1009.53
2016-09-05T10:33:03.902Z,1009.57
2016-09-05T10:35:03.963Z,1009.64
2016-09-05T10:36:03.985Z,1009.55
2016-09-05T10:37:04.019Z,1009.59
2016-09-05T10:38:04.044Z,1009.59
2016-09-05T10:39:04.076Z,1009.66
2016-09-05T10:40:04.100Z,1009.69
2016-09-05T10:41:04.132Z,1009.65
2016-09-05T10:42:04.160Z,1009.67
2016-09-05T10:43:04.182Z,1009.68
2016-09-05T10:44:04.212Z,1009.72
2016-09-05T10:45:04.237Z,1009.69
2016-09-05T10:46:04.272Z,1009.73
2016-09-05T10:47:04.294Z,1009.71
2016-09-05T10:48:04.325Z,1009.69
2016-09-05T10:49:04.356Z,1009.68
2016-09-05T10:51:04.406Z,1009.69
2016-09-05T10:52:04.435Z,1009.67
2016-09-05T10:53:04.468Z,1009.66
2016-09-05T10:54:04.490Z,1009.7
2016-09-05T10:55:04.525Z,1009.69
2016-09-05T10:56:04.545Z,1009.67
2016-09-05T10:57:04.624Z,1009.7
2016-09-05T10:58:04.602Z,1009.68
2016-09-05T10:59:04.629Z,1009.77
2016-09-05T11:00:04.658Z,1009.83
2016-09-05T11:01:04.686Z,1009.79
2016-09-05T11:02:04.714Z,1009.78
2016-09-05T11:03:04.742Z,1009.79
2016-09-05T11:04:04.775Z,1009.78
2016-09-05T11:06:04.832Z,1009.82
2016-09-05T11:07:04.854Z,1009.88
2016-09-05T11:08:04.881Z,1009.84
2016-09-05T11:09:04.910Z,1009.83
2016-09-05T11:10:04.943Z,1009.81
2016-09-05T11:11:04.966Z,1009.83
2016-09-05T11:12:04.998Z,1009.84
2016-09-05T11:13:05.027Z,1009.83
2016-09-05T11:14:05.048Z,1009.83
2016-09-05T11:15:05.093Z,1009.83
2016-09-05T11:16:05.104Z,1009.82
2016-09-05T11:17:05.131Z,1009.78
2016-09-05T11:18:05.160Z,1009.8
2016-09-05T11:19:05.186Z,1009.81
2016-09-05T11:20:05.214Z,1009.85
2016-09-05T11:21:05.291Z,1009.77
2016-09-05T11:22:05.269Z,1009.88
2016-09-05T11:23:05.296Z,1009.85
2016-09-05T11:24:05.323Z,1009.85
2016-09-05T11:25:05.354Z,1009.86
2016-09-05T11:26:05.385Z,1009.93
2016-09-05T11:27:05.412Z,1009.95
2016-09-05T11:28:05.436Z,1009.97
2016-09-05T11:29:05.463Z,1010
2016-09-05T11:30:05.490Z,1010.02
2016-09-05T11:31:05.518Z,1010.03
2016-09-05T11:32:05.547Z,1010.05
2016-09-05T11:33:05.575Z,1010.05
2016-09-05T11:34:05.603Z,1010.02
2016-09-05T11:35:05.635Z,1009.99
2016-09-05T11:36:05.659Z,1009.99
2016-09-05T11:38:05.713Z,1010.04
2016-09-05T11:39:05.748Z,1010.02
2016-09-05T11:40:05.770Z,1010.04
2016-09-05T11:41:05.799Z,1010.06
2016-09-05T11:42:05.826Z,1010.07
2016-09-05T11:43:05.858Z,1010.02
2016-09-05T11:44:05.880Z,1010.06
2016-09-05T11:45:05.914Z,1010.1
2016-09-05T11:46:05.943Z,1010.1
2016-09-05T11:47:05.970Z,1010.09
2016-09-05T11:48:05.994Z,1010.09
2016-09-05T11:49:06.026Z,1010.11
2016-09-05T11:50:06.050Z,1010.11
2016-09-05T11:51:06.078Z,1010.14
2016-09-05T11:52:06.111Z,1010.05
2016-09-05T11:54:06.167Z,1010.14
2016-09-05T11:55:06.191Z,1010.21
2016-09-05T11:56:06.217Z,1010.15
2016-09-05T11:57:06.248Z,1010.14
2016-09-05T11:58:06.279Z,1010.13
2016-09-05T11:59:06.308Z,1010.14
2016-09-05T12:01:06.360Z,1010.23
2016-09-05T12:02:06.393Z,1010.24
2016-09-05T12:03:06.415Z,1010.26
2016-09-05T12:04:06.450Z,1010.2
2016-09-05T12:05:06.472Z,1010.24
2016-09-05T12:06:06.506Z,1010.28
2016-09-05T12:07:06.529Z,1010.21
2016-09-05T12:08:06.557Z,1010.32
2016-09-05T12:10:06.619Z,1010.31
2016-09-05T12:11:06.642Z,1010.32
2016-09-05T12:12:06.673Z,1010.3
2016-09-05T12:13:06.698Z,1010.33
2016-09-05T12:14:06.729Z,1010.35
2016-09-05T12:15:06.761Z,1010.41
2016-09-05T12:16:06.784Z,1010.4
2016-09-05T12:17:06.810Z,1010.43
2016-09-05T12:18:06.842Z,1010.37
2016-09-05T12:19:06.867Z,1010.4
2016-09-05T12:20:06.897Z,1010.41
2016-09-05T12:21:06.924Z,1010.4
2016-09-05T12:22:06.952Z,1010.42
2016-09-05T12:23:06.986Z,1010.41
2016-09-05T12:24:07.007Z,1010.42
2016-09-05T12:26:07.066Z,1010.44
2016-09-05T12:27:07.099Z,1010.44
2016-09-05T12:28:07.125Z,1010.44
2016-09-05T12:29:07.154Z,1010.47
2016-09-05T12:30:07.179Z,1010.46
2016-09-05T12:31:07.206Z,1010.47
2016-09-05T12:32:07.233Z,1010.48
2016-09-05T12:33:07.263Z,1010.5
2016-09-05T12:34:07.289Z,1010.55
2016-09-05T12:35:07.319Z,1010.55
2016-09-05T12:36:07.352Z,1010.6
2016-09-05T12:37:07.376Z,1010.6
2016-09-05T12:38:07.402Z,1010.67
2016-09-05T12:39:07.430Z,1010.71
2016-09-05T12:41:07.487Z,1010.68
2016-09-05T12:42:07.517Z,1010.76
2016-09-05T12:43:07.549Z,1010.71
2016-09-05T12:44:07.571Z,1010.72
2016-09-05T12:45:07.600Z,1010.75
2016-09-05T12:46:07.627Z,1010.78
2016-09-05T12:47:07.662Z,1010.76
2016-09-05T12:48:07.684Z,1010.75
2016-09-05T12:49:07.712Z,1010.75
2016-09-05T12:50:07.742Z,1010.74